Strona główna
METAR-TAF:

Lotnisko :

Albert, Francja

Szerokość geograficzna: 49-58-21N, Długość geograficzna: 002-41-29E, wysokość: 111 m

Aktualna obserwacja pogody

Raport powstał 36 minut temu, godzina 04:30 UTC
Wiatr 9 kt od południowy zachód
Temperatura 16°C
Wilgotność 94%
Ciśnienie 1026 hPa
Widzialność 10 km lub więcej
Zachmurzenie całkowite na wysokości 2900 ft

METAR: LFAQ 280430Z AUTO 22009KT 9999 OVC029 16/15 Q1026

czas: 07:06 (05:06 UTC)

Prognoza

Raport powstał 15 godziny i 6 minut temu, godzina 14:00 UTC
Prognoza ważna od 27 godzina 15 UTC do 27 godzina 24 UTC
Wiatr 10 kt od południowo-południowy zachód
Widzialność 10 km lub więcej
Brak chmur poniżej 1500 m i brak chmur cumulonimbus

TAF: LFAQ 271400Z 2715/2724 20010KT CAVOK

METAR-TAF

Obserwacja i prognoza pogody dla ponad 4000 lotnisk (raport METAR i TAF).

Dostępne stacje oznaczono żółtymi i czerwonymi punktami na mapie.

Najedź kursorem aby zobaczyć nazwę stacji.

Kliknij aby zobaczyć obserwacje i prognozy pogody.

Aby zmienić mapę: kliknij na zielony przycisk z czarnym krzyżykiem, aby powiększyć; na zielony przycisk z myślnikiem, aby pomniejszyć; na zielone strzałki, aby przejść do map sąsiednich.


METAR-TAF: